Pagrindinis puslapis
METAR-TAF:

METAR-TAF

Oro uostai :

Sandane, Norvegija

platuma: 61-50N, ilguma: 006-07E, Aukštis: 6 m

Dabartinis oras

Ataskaita buvo paskelbta 34 minutes, ne 21:20 UTC
Vėjas 2 kt iš Rytų
Temperatūra 12°C
Drėgmė 100%
Slėgis 1007 hPa
Matomumas 10 km arba daugiau

METAR: ENSD 162120Z AUTO 08002KT 9999 FEW055/// BKN070/// OVC088/// 12/12 Q1007 RMK WIND RWY 26 VRB02KT WIND 1140FT 06005KT

Laikas: 23:54 (21:54 UTC)

Prognozė

Ataskaita buvo paskelbta 7 valandos ir 54 minutes, ne 14:00 UTC
Prognozė galioja nuo 16 metu 15 UTC su 16 metu 21 UTC
Vėjas 5 kt nuo kintamojo kryptimis
Matomumas 10 km arba daugiau
Mažai debesys ne aukštis 3000 ft
Su prošvaistėmis ne aukštis 6000 ft
Laikinai
nuo 16 metu 15 UTC su 16 metu 21 UTC
Vėjas 10 kt iš Šiaurės Vakarų
Su prošvaistėmis ne aukštis 3000 ft, Liūtiniai kamuoliniai debesys.
lietus
Tikimybė 30% :
Laikinai
nuo 16 metu 15 UTC su 16 metu 18 UTC
perkūnija,

TAF: ENSD 161400Z 1615/1621 VRB05KT 9999 FEW030 BKN060 TEMPO 1615/1621 32010KT SHRA BKN030CB PROB30 TEMPO 1615/1618 TS

Orai ataskaitas ir orų prognozės (METAR, TAF).

turimą stotys yra geltonos ir raudonos taškus žemėlapyje.

Perkelti pele per norėdami pamatyti stoties vardą.

Tada spustelėkite, norėdami matyti oro stebėjimo ir prognozės.

Norėdami pakeisti žemėlapį: spustelėkite ant žalios mygtukų su juodo kryžiaus žemyn,; žalią mygtuką su brūkšneliu, jei norite nutolinti; arba žalių rodyklių gretimoms žemėlapius.


METAR-TAF: